Terminal Aerodrome Forecast
Issued by NWS Twin Cities, MN

Home | Current Version | Previous Version | Graphics & Text | Print | Product List | Glossary On
Versions: 1 2 3 4 5 6 7 8 9 10 11 12 13 14 15 16 17
000
FTUS43 KMPX 022338
TAFEAU
TAF
KEAU 022338Z 0300/0324 27004KT P6SM OVC020
     FM030500 27004KT P6SM OVC017
     FM031600 25004KT P6SM OVC022
     FM032000 15012KT P6SM OVC035=

USA.gov is the U.S. government's official web portal to all federal, state and local government web resources and services.